This is the latest recevied weather packets stored in our database for station/object KC2WGU. If no packets are shown the sender has not sent any weather packets the latest 10 day(s).
| Time | Temp. | Humidity | Pressure | Rain* | Wind** | Luminosity | Snow |
|---|---|---|---|---|---|---|---|
| 1777252821 | 12.78° C | 64% | 1019.1 hPa | 0 mm | - | 0 W/m² | - |
| 1777252221 | 12.22° C | 66% | 1019.1 hPa | 0 mm | - | 0 W/m² | - |
| 1777251621 | 11.11° C | 68% | 1018.9 hPa | 0 mm | - | 0 W/m² | - |
| 1777251021 | 11.67° C | 67% | 1018.6 hPa | 0 mm | - | 0 W/m² | - |
| 1777250421 | 12.22° C | 64% | 1018.6 hPa | 0 mm | - | 0 W/m² | - |
| 1777249821 | 12.78° C | 61% | 1018.5 hPa | 0 mm | - | 0 W/m² | - |
| 1777249221 | 13.33° C | 60% | 1018.3 hPa | 0 mm | - | 0 W/m² | - |
| 1777248623 | 13.89° C | 57% | 1018.3 hPa | 0 mm | - | 0 W/m² | - |
| 1777248022 | 14.44° C | 54% | 1018.1 hPa | 0 mm | - | 0 W/m² | - |
| 1777247421 | 15° C | 54% | 1018 hPa | 0 mm | - | 0 W/m² | - |
| 1777246821 | 15.56° C | 52% | 1017.8 hPa | 0 mm | - | 0 W/m² | - |
| 1777246222 | 16.67° C | 50% | 1017.8 hPa | 0 mm | - | 0 W/m² | - |
| 1777245622 | 17.22° C | 46% | 1017.7 hPa | 0 mm | - | 0 W/m² | - |
| 1777245021 | 17.22° C | 48% | 1017.6 hPa | 0 mm | - | 0 W/m² | - |
| 1777244421 | 16.67° C | 50% | 1017.6 hPa | 0 mm | - | 0 W/m² | - |
| 1777243822 | 17.22° C | 51% | 1017.6 hPa | 0 mm | - | 0 W/m² | - |
| 1777243223 | 17.22° C | 46% | 1017.6 hPa | 0 mm | - | 0 W/m² | - |
| 1777242622 | 17.78° C | 45% | 1017.5 hPa | 0 mm | - | 0 W/m² | - |
| 1777242021 | 17.78° C | 45% | 1017.5 hPa | 0 mm | - | 0 W/m² | - |
| 1777241422 | 17.78° C | 45% | 1017.4 hPa | 0 mm | - | 0 W/m² | - |
| 1777240821 | 17.22° C | 46% | 1017.4 hPa | 0 mm | - | 0 W/m² | - |
| 1777240222 | 16.11° C | 48% | 1017.4 hPa | 0 mm | - | 0 W/m² | - |
| 1777239621 | 16.11° C | 46% | 1017.4 hPa | 0 mm | - | 0 W/m² | - |
| 1777239022 | 15.56° C | 47% | 1017.3 hPa | 0 mm | - | 0 W/m² | - |
| 1777238422 | 16.11° C | 46% | 1017.3 hPa | 0 mm | - | 0 W/m² | - |
* Rain latest hour (hover to see other rain measurements)
** Current wind speed in m/s (hover to see current wind gust speed)